Time;durP1;ratioP1;P1;durP2;ratioP2;P2;SDS_P1;SDS_P2;PMS_P1;PMS_P2;Temp;Humidity;BMP_temperature;BMP_pressure;BME280_temperature;BME280_humidity;BME280_pressure;Samples;Min_cycle;Max_cycle;Signal;HPM_P1;HPM_P2
2021/09/04 00:00:51;;;;;;;35.97;18.75;;;13.30;99.90;;;;;;5054411;28;20093;-90
2021/09/04 00:03:17;;;;;;;43.75;19.65;;;13.30;99.90;;;;;;5054112;28;20104;-90
2021/09/04 00:05:43;;;;;;;38.80;19.23;;;13.30;99.90;;;;;;5053847;28;20029;-90
2021/09/04 00:08:09;;;;;;;34.50;18.50;;;13.30;99.90;;;;;;5043611;28;20088;-90
2021/09/04 00:10:34;;;;;;;38.53;19.85;;;13.20;99.90;;;;;;5051832;28;20390;-91
2021/09/04 00:13:00;;;;;;;42.45;20.73;;;13.30;99.90;;;;;;5045242;28;20029;-91
2021/09/04 00:15:26;;;;;;;47.42;20.83;;;13.30;99.90;;;;;;5043644;28;20033;-90
2021/09/04 00:17:53;;;;;;;42.60;21.00;;;13.30;99.90;;;;;;5052399;28;20021;-91
2021/09/04 00:20:19;;;;;;;43.53;21.15;;;13.20;99.90;;;;;;5042470;28;20028;-91
2021/09/04 00:22:45;;;;;;;46.80;22.33;;;13.20;99.90;;;;;;5044768;28;20445;-90
2021/09/04 00:25:11;;;;;;;43.58;21.52;;;13.20;99.90;;;;;;5043626;28;20522;-90
2021/09/04 00:27:36;;;;;;;39.17;21.55;;;13.20;99.90;;;;;;5053950;28;20045;-90
2021/09/04 00:30:03;;;;;;;46.00;24.60;;;13.20;99.90;;;;;;5053357;28;20374;-90
2021/09/04 00:32:28;;;;;;;47.80;21.63;;;13.20;99.90;;;;;;5044896;28;20040;-90
2021/09/04 00:34:54;;;;;;;43.63;22.17;;;13.20;99.90;;;;;;5044099;28;20022;-90
2021/09/04 00:37:19;;;;;;;45.60;23.63;;;13.20;99.90;;;;;;5053890;28;20052;-90
2021/09/04 00:39:45;;;;;;;46.03;24.05;;;13.20;99.90;;;;;;5042413;28;20018;-90
2021/09/04 00:42:12;;;;;;;39.72;20.70;;;13.20;99.90;;;;;;5051736;28;20025;-91
2021/09/04 00:44:38;;;;;;;45.47;22.08;;;13.10;99.90;;;;;;5041254;28;20025;-90
2021/09/04 00:47:05;;;;;;;43.17;21.85;;;13.10;99.90;;;;;;5044423;28;20037;-90
2021/09/04 00:49:34;;;;;;;45.55;21.55;;;13.10;99.90;;;;;;5042847;28;20029;-90
2021/09/04 00:52:00;;;;;;;41.92;20.23;;;13.10;99.90;;;;;;5053022;28;20025;-90
2021/09/04 00:54:26;;;;;;;40.38;20.20;;;13.00;99.90;;;;;;5042175;28;20021;-90
2021/09/04 00:56:52;;;;;;;44.33;21.20;;;13.00;99.90;;;;;;5051206;28;20032;-90
2021/09/04 00:59:18;;;;;;;42.17;20.65;;;13.00;99.90;;;;;;5044424;28;20017;-90
2021/09/04 01:01:44;;;;;;;45.35;22.52;;;13.00;99.90;;;;;;5052374;28;20020;-90
2021/09/04 01:04:09;;;;;;;42.22;19.98;;;12.90;99.90;;;;;;5051214;28;20389;-90
2021/09/04 01:06:35;;;;;;;42.90;20.92;;;13.00;99.90;;;;;;5042546;28;20490;-90
2021/09/04 01:09:01;;;;;;;45.50;20.52;;;12.90;99.90;;;;;;5049935;28;20033;-90
2021/09/04 01:11:28;;;;;;;46.28;21.80;;;12.90;99.90;;;;;;5052824;28;20025;-90
2021/09/04 01:13:53;;;;;;;45.35;20.65;;;12.90;99.90;;;;;;5050914;28;20033;-90
2021/09/04 01:16:19;;;;;;;41.60;19.58;;;12.90;99.90;;;;;;5043285;28;20022;-90
2021/09/04 01:18:45;;;;;;;47.08;21.90;;;12.90;99.90;;;;;;5052655;28;20115;-90
2021/09/04 01:21:10;;;;;;;45.30;21.65;;;12.90;99.90;;;;;;5044346;28;20064;-90
2021/09/04 01:23:38;;;;;;;44.47;21.02;;;12.90;99.90;;;;;;5051693;28;20024;-91
2021/09/04 01:26:05;;;;;;;42.63;20.77;;;12.90;99.90;;;;;;5044652;28;20025;-91
2021/09/04 01:28:32;;;;;;;46.67;21.77;;;12.80;99.90;;;;;;5042538;28;20045;-91
2021/09/04 01:30:58;;;;;;;44.50;21.48;;;12.80;99.90;;;;;;5050300;28;20021;-90
2021/09/04 01:33:23;;;;;;;46.13;21.58;;;12.80;99.90;;;;;;5044067;28;20608;-91
2021/09/04 01:35:49;;;;;;;52.88;22.25;;;12.80;99.90;;;;;;5043234;28;20111;-90
2021/09/04 01:38:15;;;;;;;42.08;21.85;;;12.80;99.90;;;;;;5051963;28;20023;-90
2021/09/04 01:40:41;;;;;;;40.17;20.40;;;12.80;99.90;;;;;;5042123;28;20044;-90
2021/09/04 01:43:06;;;;;;;46.10;21.30;;;12.80;99.90;;;;;;5052715;28;20086;-90
2021/09/04 01:45:32;;;;;;;45.08;21.77;;;12.80;99.90;;;;;;5052186;28;20048;-90
2021/09/04 01:47:58;;;;;;;45.10;20.92;;;12.80;99.90;;;;;;5044368;28;20064;-91
2021/09/04 01:50:23;;;;;;;41.42;20.40;;;12.80;99.90;;;;;;5044462;28;20026;-91
2021/09/04 01:52:49;;;;;;;40.97;20.58;;;12.80;99.90;;;;;;5053453;28;20025;-91
2021/09/04 01:55:17;;;;;;;41.67;20.13;;;12.80;99.90;;;;;;5052486;28;20047;-89
2021/09/04 01:57:43;;;;;;;42.65;19.88;;;12.80;99.90;;;;;;5047516;28;20029;-89
2021/09/04 02:00:10;;;;;;;43.58;20.40;;;12.80;99.90;;;;;;5040055;28;20071;-91
2021/09/04 02:02:37;;;;;;;48.80;21.73;;;12.90;99.90;;;;;;5061986;28;20070;-90
2021/09/04 02:05:03;;;;;;;46.13;21.50;;;12.80;99.90;;;;;;5060529;28;20506;-90
2021/09/04 02:07:29;;;;;;;48.47;21.30;;;12.80;99.90;;;;;;5067419;28;20052;-90
2021/09/04 02:09:55;;;;;;;41.35;20.60;;;12.90;99.90;;;;;;5066489;28;20014;-89
2021/09/04 02:12:21;;;;;;;48.00;22.10;;;12.90;99.90;;;;;;5074755;28;20031;-90
2021/09/04 02:14:46;;;;;;;44.95;22.15;;;12.90;99.90;;;;;;5052211;28;20116;-90
2021/09/04 02:17:12;;;;;;;41.45;21.15;;;12.90;99.90;;;;;;5051747;28;20104;-90
2021/09/04 02:19:37;;;;;;;47.60;21.40;;;12.90;99.90;;;;;;5049486;28;20025;-90
2021/09/04 02:22:03;;;;;;;51.15;24.17;;;12.90;99.90;;;;;;5043165;28;20033;-90
2021/09/04 02:24:29;;;;;;;48.03;23.45;;;12.90;99.90;;;;;;5035937;28;20017;-91
2021/09/04 02:26:56;;;;;;;47.40;24.15;;;12.80;99.90;;;;;;5043257;28;20045;-90
2021/09/04 02:29:22;;;;;;;55.55;25.40;;;12.80;99.90;;;;;;5043584;28;20043;-91
2021/09/04 02:31:48;;;;;;;55.42;24.20;;;12.80;99.90;;;;;;5047214;28;20104;-91
2021/09/04 02:34:13;;;;;;;47.40;23.70;;;12.80;99.90;;;;;;5050223;28;20036;-91
2021/09/04 02:36:39;;;;;;;43.60;21.88;;;12.80;99.90;;;;;;5042114;28;20025;-90
2021/09/04 02:39:05;;;;;;;51.92;24.02;;;12.70;99.90;;;;;;5042193;28;20056;-89
2021/09/04 02:41:31;;;;;;;48.45;22.27;;;12.70;99.90;;;;;;5044826;28;20028;-89
2021/09/04 02:43:57;;;;;;;50.00;22.20;;;12.70;99.90;;;;;;5045804;28;20032;-90
2021/09/04 02:46:22;;;;;;;46.00;21.77;;;12.80;99.90;;;;;;5051952;28;20023;-90
2021/09/04 02:48:48;;;;;;;53.70;23.73;;;12.80;99.90;;;;;;5041416;28;20022;-90
2021/09/04 02:51:14;;;;;;;45.53;23.33;;;12.70;99.90;;;;;;5050234;28;20386;-89
2021/09/04 02:53:39;;;;;;;48.78;24.45;;;12.80;99.90;;;;;;5042519;28;20032;-89
2021/09/04 02:56:05;;;;;;;49.25;22.30;;;12.80;99.90;;;;;;5048859;28;20097;-90
2021/09/04 02:58:31;;;;;;;48.78;22.70;;;12.80;99.90;;;;;;5050406;28;20440;-89
2021/09/04 03:00:56;;;;;;;46.28;22.17;;;12.70;99.90;;;;;;5044580;28;20017;-89
2021/09/04 03:03:22;;;;;;;48.63;22.50;;;12.80;99.90;;;;;;5042222;28;20497;-90
2021/09/04 03:05:47;;;;;;;42.88;21.40;;;12.80;99.90;;;;;;5053274;28;20056;-90
2021/09/04 03:08:13;;;;;;;49.28;22.42;;;12.80;99.90;;;;;;5052021;28;20143;-90
2021/09/04 03:10:39;;;;;;;52.53;23.10;;;12.80;99.90;;;;;;5049701;28;20059;-90
2021/09/04 03:13:05;;;;;;;51.22;22.83;;;12.80;99.90;;;;;;5043287;28;20028;-90
2021/09/04 03:15:30;;;;;;;52.72;23.17;;;12.80;99.90;;;;;;5044875;28;20041;-90
2021/09/04 03:17:56;;;;;;;48.42;22.38;;;12.80;99.90;;;;;;5055854;28;20151;-90
2021/09/04 03:20:22;;;;;;;41.38;21.60;;;12.80;99.90;;;;;;5052760;28;20643;-90
2021/09/04 03:22:47;;;;;;;49.22;23.55;;;12.80;99.90;;;;;;5055673;28;20029;-90
2021/09/04 03:25:14;;;;;;;43.45;22.15;;;12.80;99.90;;;;;;5055385;28;20024;-90
2021/09/04 03:27:39;;;;;;;48.05;22.98;;;12.80;99.90;;;;;;5058800;28;20076;-90
2021/09/04 03:30:06;;;;;;;45.28;22.80;;;12.80;99.90;;;;;;5056682;28;20083;-89
2021/09/04 03:32:31;;;;;;;51.15;25.15;;;12.80;99.90;;;;;;5057966;28;20035;-90
2021/09/04 03:34:57;;;;;;;49.67;24.58;;;12.80;99.90;;;;;;5042279;28;20041;-89
2021/09/04 03:37:22;;;;;;;48.97;23.77;;;12.80;99.90;;;;;;5048347;28;20116;-90
2021/09/04 03:39:48;;;;;;;52.70;25.17;;;12.80;99.90;;;;;;5055853;28;20029;-89
2021/09/04 03:42:14;;;;;;;51.25;25.90;;;12.80;99.90;;;;;;5048944;28;20052;-89
2021/09/04 03:44:39;;;;;;;47.67;23.45;;;12.80;99.90;;;;;;5046416;28;20020;-90
2021/09/04 03:47:05;;;;;;;49.20;23.30;;;12.80;99.90;;;;;;5043762;28;20037;-90
2021/09/04 03:49:32;;;;;;;49.72;24.60;;;12.80;99.90;;;;;;5054951;28;20107;-89
2021/09/04 03:51:58;;;;;;;50.05;24.30;;;12.80;99.90;;;;;;5046013;28;20071;-90
2021/09/04 03:54:23;;;;;;;48.58;24.55;;;12.80;99.90;;;;;;5046009;28;20029;-90
2021/09/04 03:56:49;;;;;;;44.70;24.02;;;12.70;99.90;;;;;;5043911;28;20049;-90
2021/09/04 03:59:15;;;;;;;54.15;24.60;;;12.80;99.90;;;;;;5053538;28;20017;-90
2021/09/04 04:01:41;;;;;;;43.03;23.02;;;12.70;99.90;;;;;;5043326;28;20021;-89
2021/09/04 04:04:07;;;;;;;49.35;23.02;;;12.80;99.90;;;;;;5046027;28;20359;-89
2021/09/04 04:06:32;;;;;;;47.55;23.10;;;12.80;99.90;;;;;;5047156;28;20029;-88
2021/09/04 04:08:58;;;;;;;46.03;22.67;;;12.80;99.90;;;;;;5055210;28;20033;-89
2021/09/04 04:11:24;;;;;;;46.17;22.75;;;12.80;99.90;;;;;;5055744;28;20428;-90
2021/09/04 04:13:50;;;;;;;44.13;20.88;;;12.80;99.90;;;;;;5044411;28;20029;-90
2021/09/04 04:16:16;;;;;;;49.88;22.05;;;12.80;99.90;;;;;;5053971;28;20024;-89
2021/09/04 04:18:41;;;;;;;49.33;22.92;;;12.80;99.90;;;;;;5045877;28;20021;-91
2021/09/04 04:21:07;;;;;;;45.03;22.02;;;12.80;99.90;;;;;;5045127;28;20041;-90
2021/09/04 04:23:34;;;;;;;43.47;21.75;;;12.80;99.90;;;;;;5055363;28;20055;-89
2021/09/04 04:25:59;;;;;;;48.28;23.10;;;12.80;99.90;;;;;;5054856;28;20021;-89
2021/09/04 04:28:26;;;;;;;50.70;23.85;;;12.80;99.90;;;;;;5052220;28;20509;-89
2021/09/04 04:30:51;;;;;;;56.38;25.15;;;12.80;99.90;;;;;;5054871;28;20100;-90
2021/09/04 04:33:17;;;;;;;51.58;24.52;;;12.80;99.90;;;;;;5046596;28;20492;-89
2021/09/04 04:35:43;;;;;;;51.22;24.27;;;12.80;99.90;;;;;;5052280;28;20029;-89
2021/09/04 04:38:09;;;;;;;56.47;25.88;;;12.80;99.90;;;;;;5054629;28;20017;-90
2021/09/04 04:40:35;;;;;;;49.85;22.40;;;12.80;99.90;;;;;;5054330;28;20017;-90
2021/09/04 04:43:00;;;;;;;55.88;25.33;;;12.80;99.90;;;;;;5054660;28;20103;-89
2021/09/04 04:45:26;;;;;;;55.85;23.73;;;12.70;99.90;;;;;;5054237;28;20091;-90
2021/09/04 04:47:51;;;;;;;53.03;25.80;;;12.70;99.90;;;;;;5043933;28;20026;-91
2021/09/04 04:50:18;;;;;;;50.97;25.58;;;12.70;99.90;;;;;;5054527;28;20040;-90
2021/09/04 04:52:45;;;;;;;54.42;25.20;;;12.70;99.90;;;;;;5054455;28;20029;-89
2021/09/04 04:55:11;;;;;;;56.60;26.63;;;12.70;99.90;;;;;;5052996;28;20082;-90
2021/09/04 04:57:37;;;;;;;53.33;26.42;;;12.70;99.90;;;;;;5042139;28;20025;-89
2021/09/04 05:00:04;;;;;;;52.08;25.98;;;12.70;99.90;;;;;;5044905;28;20029;-89
2021/09/04 05:02:29;;;;;;;55.22;25.70;;;12.60;99.90;;;;;;5041897;28;20024;-90
2021/09/04 05:04:55;;;;;;;52.03;24.65;;;12.70;99.90;;;;;;5043012;28;20020;-89
2021/09/04 05:07:21;;;;;;;50.58;23.55;;;12.60;99.90;;;;;;5049629;28;20120;-90
2021/09/04 05:09:46;;;;;;;54.80;25.75;;;12.60;99.90;;;;;;5043268;28;20025;-89
2021/09/04 05:12:12;;;;;;;56.67;24.08;;;12.70;99.90;;;;;;5040692;28;20029;-89
2021/09/04 05:14:38;;;;;;;45.47;22.35;;;12.60;99.90;;;;;;5042860;28;20017;-89
2021/09/04 05:17:03;;;;;;;48.72;23.48;;;12.60;99.90;;;;;;5049901;28;20025;-89
2021/09/04 05:19:30;;;;;;;50.17;23.48;;;12.70;99.90;;;;;;5046276;28;20021;-90
2021/09/04 05:21:56;;;;;;;49.75;23.10;;;12.70;99.90;;;;;;5038309;28;20476;-90
2021/09/04 05:24:22;;;;;;;45.40;24.05;;;12.70;99.90;;;;;;5043215;28;20025;-90
2021/09/04 05:26:48;;;;;;;47.80;23.80;;;12.70;99.90;;;;;;5049996;28;20053;-89
2021/09/04 05:29:13;;;;;;;51.85;24.23;;;12.70;99.90;;;;;;5052793;28;20041;-89
2021/09/04 05:31:39;;;;;;;54.63;25.52;;;12.70;99.90;;;;;;5050640;28;20472;-91
2021/09/04 05:34:04;;;;;;;53.20;25.30;;;12.70;99.90;;;;;;5040967;28;20025;-90
2021/09/04 05:36:30;;;;;;;53.13;24.50;;;12.70;99.90;;;;;;5051457;28;20017;-90
2021/09/04 05:38:56;;;;;;;51.72;23.80;;;12.70;99.90;;;;;;5041657;28;20025;-91
2021/09/04 05:41:21;;;;;;;50.30;23.63;;;12.70;99.90;;;;;;5046952;28;20546;-90
2021/09/04 05:43:47;;;;;;;47.03;24.13;;;12.80;99.90;;;;;;5050186;28;20466;-89
2021/09/04 05:46:13;;;;;;;48.45;22.92;;;12.80;99.90;;;;;;5044018;28;20285;-90
2021/09/04 05:48:39;;;;;;;43.15;22.42;;;12.80;99.90;;;;;;5043268;28;20037;-90
2021/09/04 05:51:04;;;;;;;46.25;22.98;;;12.80;99.90;;;;;;5053226;28;20032;-90
2021/09/04 05:55:56;;;;;;;46.53;23.48;;;12.80;99.90;;;;;;5037753;28;20021;-90
2021/09/04 05:58:23;;;;;;;47.92;24.08;;;12.80;99.90;;;;;;5054438;28;20036;-90
2021/09/04 06:00:50;;;;;;;44.55;22.75;;;12.80;99.90;;;;;;5053959;28;20040;-91
2021/09/04 06:03:16;;;;;;;47.88;22.73;;;12.80;99.90;;;;;;5054071;28;20085;-90
2021/09/04 06:05:41;;;;;;;51.75;24.17;;;12.80;99.90;;;;;;5053187;28;20017;-90
2021/09/04 06:08:10;;;;;;;48.90;22.65;;;12.70;99.90;;;;;;5049769;28;20481;-90
2021/09/04 06:10:36;;;;;;;48.97;21.75;;;12.70;99.90;;;;;;5050059;28;20025;-90
2021/09/04 06:13:02;;;;;;;44.28;22.67;;;12.80;99.90;;;;;;5043755;28;20036;-90
2021/09/04 06:15:28;;;;;;;41.28;21.20;;;12.80;99.90;;;;;;5050063;28;20025;-90
2021/09/04 06:17:53;;;;;;;38.90;20.70;;;12.80;99.90;;;;;;5042751;28;20037;-89
2021/09/04 06:20:19;;;;;;;41.95;20.98;;;12.80;99.90;;;;;;5051744;28;20044;-90
2021/09/04 06:22:45;;;;;;;39.28;19.40;;;12.80;99.90;;;;;;5045697;28;20021;-91
2021/09/04 06:25:11;;;;;;;43.50;20.92;;;12.80;99.90;;;;;;5035252;28;20504;-90
2021/09/04 06:27:38;;;;;;;39.42;19.88;;;12.80;99.90;;;;;;5051701;28;20049;-90
2021/09/04 06:30:05;;;;;;;44.42;21.38;;;12.80;99.90;;;;;;5041769;28;20013;-90
2021/09/04 06:32:30;;;;;;;43.22;21.70;;;12.80;99.90;;;;;;5042826;28;20486;-90
2021/09/04 06:34:56;;;;;;;44.13;22.08;;;12.80;99.90;;;;;;5042735;28;20028;-91
2021/09/04 06:37:22;;;;;;;45.30;21.17;;;12.80;99.90;;;;;;5053786;28;20029;-90
2021/09/04 06:39:48;;;;;;;45.45;21.33;;;12.90;99.90;;;;;;5052523;28;20048;-90
2021/09/04 06:42:13;;;;;;;43.35;21.55;;;12.90;99.90;;;;;;5052374;28;20028;-87
2021/09/04 06:44:39;;;;;;;43.30;21.50;;;12.90;99.90;;;;;;5051961;28;20032;-90
2021/09/04 06:47:05;;;;;;;46.53;23.27;;;12.90;99.90;;;;;;5052264;28;20416;-90
2021/09/04 06:49:31;;;;;;;42.80;21.25;;;12.90;99.90;;;;;;5043553;28;20040;-90
2021/09/04 06:51:56;;;;;;;46.45;22.60;;;12.90;99.90;;;;;;5044996;28;20029;-91
2021/09/04 06:54:24;;;;;;;48.95;22.73;;;12.90;99.90;;;;;;5059235;28;20021;-90
2021/09/04 06:57:05;;;;;;;46.75;23.08;;;12.90;99.90;;;;;;5093378;27;20453;-90
2021/09/04 06:59:31;;;;;;;48.22;24.02;;;13.00;99.90;;;;;;5094918;28;20055;-90
2021/09/04 07:01:57;;;;;;;48.28;22.13;;;13.00;99.90;;;;;;5079966;28;20028;-88
2021/09/04 07:04:23;;;;;;;53.15;24.60;;;13.00;99.90;;;;;;5098101;28;20351;-91
2021/09/04 07:06:48;;;;;;;48.70;22.88;;;13.00;99.90;;;;;;5096848;28;20119;-91
2021/09/04 07:09:14;;;;;;;44.20;22.00;;;13.00;99.90;;;;;;5105637;28;20046;-89
2021/09/04 07:11:39;;;;;;;48.13;22.27;;;13.00;99.90;;;;;;5113699;28;20040;-90
2021/09/04 07:14:05;;;;;;;39.03;20.95;;;13.00;99.90;;;;;;5114199;28;20042;-90
2021/09/04 07:16:31;;;;;;;39.00;21.08;;;13.00;99.90;;;;;;5103881;28;20036;-90
2021/09/04 07:18:57;;;;;;;49.78;21.85;;;13.00;99.90;;;;;;5094900;28;20031;-90
2021/09/04 07:21:22;;;;;;;40.10;20.83;;;13.10;99.90;;;;;;5096701;28;20032;-90
2021/09/04 07:23:48;;;;;;;41.47;21.23;;;13.10;99.90;;;;;;5094259;28;20107;-91
2021/09/04 07:26:14;;;;;;;42.95;20.92;;;13.10;99.90;;;;;;5094060;28;20032;-90
2021/09/04 07:28:41;;;;;;;41.53;20.60;;;13.10;99.90;;;;;;5094067;28;20019;-90
2021/09/04 07:31:07;;;;;;;47.30;22.15;;;13.20;99.90;;;;;;5092531;28;20493;-88
2021/09/04 07:33:32;;;;;;;38.67;19.85;;;13.20;99.90;;;;;;5083335;28;20025;-89
2021/09/04 07:35:58;;;;;;;40.95;20.92;;;13.20;99.90;;;;;;5080749;28;20369;-90
2021/09/04 07:38:24;;;;;;;43.88;22.10;;;13.30;99.90;;;;;;5080640;28;20469;-89
2021/09/04 07:40:51;;;;;;;41.03;20.63;;;13.30;99.90;;;;;;5082247;28;20024;-91
2021/09/04 07:43:16;;;;;;;42.25;19.73;;;13.30;99.90;;;;;;5080883;28;20048;-91
2021/09/04 07:45:42;;;;;;;41.20;21.25;;;13.30;99.90;;;;;;5089452;28;20046;-90
2021/09/04 07:48:08;;;;;;;45.38;22.35;;;13.30;99.90;;;;;;5094001;28;20025;-90
2021/09/04 07:50:36;;;;;;;41.83;20.25;;;13.30;99.90;;;;;;5091625;28;20044;-89
2021/09/04 07:53:02;;;;;;;38.50;20.13;;;13.30;99.90;;;;;;5087422;28;20539;-91
2021/09/04 07:55:29;;;;;;;39.85;19.77;;;13.30;99.90;;;;;;5087725;28;20060;-90
2021/09/04 07:57:55;;;;;;;42.10;21.00;;;13.40;99.90;;;;;;5084263;28;20474;-91
2021/09/04 08:00:21;;;;;;;43.33;20.17;;;13.30;99.90;;;;;;5080099;28;20085;-89
2021/09/04 08:02:47;;;;;;;44.83;19.70;;;13.30;99.90;;;;;;5078516;28;20047;-89
2021/09/04 08:05:13;;;;;;;36.63;19.48;;;13.30;99.90;;;;;;5078281;28;20020;-89
2021/09/04 08:07:39;;;;;;;38.53;20.25;;;13.30;99.90;;;;;;5067527;28;20115;-90
2021/09/04 08:10:05;;;;;;;41.08;20.50;;;13.40;99.90;;;;;;5062078;28;20037;-90
2021/09/04 08:12:31;;;;;;;39.92;20.40;;;13.40;99.90;;;;;;5066594;28;20021;-89
2021/09/04 08:14:57;;;;;;;38.08;19.08;;;13.40;99.90;;;;;;5066811;28;20401;-88
2021/09/04 08:17:23;;;;;;;37.75;18.88;;;13.40;99.90;;;;;;5065523;28;20033;-91
2021/09/04 08:19:48;;;;;;;37.78;18.63;;;13.40;99.90;;;;;;5065538;28;20014;-90
2021/09/04 08:22:15;;;;;;;37.65;18.58;;;13.50;99.90;;;;;;5055389;28;20044;-90
2021/09/04 08:24:40;;;;;;;41.83;17.67;;;13.50;99.90;;;;;;5055657;28;20082;-90
2021/09/04 08:27:06;;;;;;;41.40;18.55;;;13.50;99.90;;;;;;5055780;28;20487;-90
2021/09/04 08:29:32;;;;;;;33.20;17.88;;;13.50;99.90;;;;;;5055568;28;20119;-90
2021/09/04 08:31:58;;;;;;;33.20;17.83;;;13.50;99.90;;;;;;5056220;28;20111;-90
2021/09/04 08:34:23;;;;;;;31.23;17.65;;;13.50;99.90;;;;;;5059056;28;20394;-89
2021/09/04 08:36:50;;;;;;;36.30;17.90;;;13.60;99.90;;;;;;5057830;28;20060;-91
2021/09/04 08:39:15;;;;;;;34.85;18.15;;;13.60;99.90;;;;;;5055797;28;20020;-90
2021/09/04 08:41:41;;;;;;;39.05;17.60;;;13.60;99.90;;;;;;5064201;28;20028;-90
2021/09/04 08:44:07;;;;;;;36.95;18.55;;;13.70;99.90;;;;;;5062167;28;20028;-90
2021/09/04 08:46:35;;;;;;;34.78;18.30;;;13.70;99.90;;;;;;5065192;28;20028;-90
2021/09/04 08:49:02;;;;;;;33.03;16.17;;;13.70;99.90;;;;;;5059363;28;20017;-91
2021/09/04 08:51:28;;;;;;;31.17;15.73;;;13.70;99.90;;;;;;5054510;28;20025;-90
2021/09/04 08:53:54;;;;;;;34.45;16.08;;;13.80;99.90;;;;;;5054139;28;20120;-90
2021/09/04 08:56:20;;;;;;;28.75;15.50;;;13.80;99.90;;;;;;5053358;28;20582;-90
2021/09/04 08:58:45;;;;;;;28.05;14.93;;;13.80;99.90;;;;;;5053686;28;20025;-90
2021/09/04 09:01:25;;;;;;;33.22;16.17;;;13.90;99.90;;;;;;5053754;28;20060;-91
2021/09/04 09:03:52;;;;;;;30.05;15.45;;;13.90;99.90;;;;;;5053977;28;20489;-90
2021/09/04 09:06:30;;;;;;;25.40;14.57;;;14.00;99.90;;;;;;5053789;28;20078;-90
2021/09/04 09:08:57;;;;;;;31.27;15.48;;;14.00;99.90;;;;;;5063169;28;20147;-91
2021/09/04 09:11:23;;;;;;;28.17;14.85;;;14.00;99.90;;;;;;5069102;28;20315;-90
2021/09/04 09:13:52;;;;;;;28.73;15.27;;;14.00;99.90;;;;;;5055203;28;20530;-91
2021/09/04 09:16:20;;;;;;;33.13;16.30;;;14.00;99.90;;;;;;5054086;28;20057;-92
2021/09/04 09:19:04;;;;;;;33.28;15.93;;;14.00;99.90;;;;;;5069067;28;20481;-90
2021/09/04 09:21:37;;;;;;;26.23;14.20;;;14.00;99.90;;;;;;5073682;28;20043;-90
2021/09/04 09:24:15;;;;;;;30.73;14.40;;;14.00;99.90;;;;;;5073350;28;20047;-92
2021/09/04 09:26:57;;;;;;;27.02;13.95;;;14.10;99.90;;;;;;5073492;28;20028;-94
2021/09/04 09:29:34;;;;;;;27.58;14.15;;;14.10;99.90;;;;;;5073226;28;20029;-92
2021/09/04 09:32:07;;;;;;;28.38;13.75;;;14.20;99.90;;;;;;5073336;28;20428;-93
2021/09/04 09:34:48;;;;;;;28.35;14.10;;;14.20;99.90;;;;;;5073536;28;20021;-90
2021/09/04 09:37:14;;;;;;;28.42;14.52;;;14.20;99.90;;;;;;5071033;28;20032;-93
2021/09/04 09:39:42;;;;;;;27.67;14.75;;;14.30;99.90;;;;;;5069671;28;20056;-92
2021/09/04 09:42:10;;;;;;;26.92;14.48;;;14.30;99.90;;;;;;5072319;28;20035;-93
2021/09/04 09:44:37;;;;;;;30.02;14.05;;;14.30;99.90;;;;;;5072884;28;20056;-93
2021/09/04 09:47:07;;;;;;;25.58;14.65;;;14.30;99.90;;;;;;5072565;28;20043;-91
2021/09/04 09:49:34;;;;;;;28.42;13.95;;;14.40;99.90;;;;;;5053864;28;20036;-94
2021/09/04 09:52:08;;;;;;;25.30;13.90;;;14.40;99.90;;;;;;5052609;28;20040;-92
2021/09/04 09:54:35;;;;;;;24.83;14.05;;;14.50;99.90;;;;;;5052593;28;20210;-93
2021/09/04 09:57:06;;;;;;;26.90;14.05;;;14.60;99.90;;;;;;5053060;28;20052;-92
2021/09/04 09:59:31;;;;;;;24.15;12.18;;;14.60;99.90;;;;;;5053136;28;20021;-92
2021/09/04 10:02:02;;;;;;;24.67;12.63;;;14.70;99.90;;;;;;5058231;28;20530;-93
2021/09/04 10:04:29;;;;;;;;;;;14.80;99.90;;;;;;5077802;28;20511;-93
2021/09/04 10:06:56;;;;;;;29.67;14.23;;;14.80;99.90;;;;;;5060331;28;19909;-93
2021/09/04 10:09:25;;;;;;;26.02;14.35;;;14.80;99.90;;;;;;5060582;28;20024;-94
2021/09/04 10:11:51;;;;;;;27.90;14.18;;;14.80;99.90;;;;;;5062740;28;20063;-93
2021/09/04 10:14:18;;;;;;;27.02;13.80;;;14.80;99.90;;;;;;5061461;28;20485;-92
2021/09/04 10:16:45;;;;;;;23.10;13.20;;;14.90;99.90;;;;;;5063381;28;20479;-93
2021/09/04 10:19:12;;;;;;;26.13;13.95;;;14.90;99.90;;;;;;5060473;28;20024;-92
2021/09/04 10:21:39;;;;;;;22.45;12.18;;;15.00;99.90;;;;;;5061862;28;20025;-92
2021/09/04 10:24:09;;;;;;;28.38;13.07;;;15.00;99.90;;;;;;5062017;28;20021;-93
2021/09/04 10:26:39;;;;;;;20.38;11.32;;;15.00;99.90;;;;;;5064140;28;20028;-92
2021/09/04 10:29:07;;;;;;;23.67;11.82;;;15.00;99.90;;;;;;5058716;28;20038;-92
2021/09/04 10:31:41;;;;;;;21.60;12.18;;;15.10;99.90;;;;;;5076667;28;20036;-92
2021/09/04 10:34:15;;;;;;;25.63;13.88;;;15.10;99.90;;;;;;5062034;28;20052;-92
2021/09/04 10:37:01;;;;;;;24.38;13.70;;;15.10;99.90;;;;;;5061171;28;20032;-93
2021/09/04 10:39:53;;;;;;;20.70;11.90;;;15.20;99.90;;;;;;5065021;28;20023;-92
2021/09/04 10:42:34;;;;;;;27.98;13.18;;;15.20;99.90;;;;;;5059141;28;20030;-92
2021/09/04 10:45:04;;;;;;;;;;;15.20;99.90;;;;;;5066570;28;20028;-93
2021/09/04 10:47:47;;;;;;;25.55;13.82;;;15.20;99.90;;;;;;5065494;28;20372;-93
2021/09/04 10:50:24;;;;;;;23.67;12.82;;;15.20;99.90;;;;;;5060800;28;20030;-93
2021/09/04 10:52:49;;;;;;;23.05;12.50;;;15.20;99.90;;;;;;5060348;28;20024;-92
2021/09/04 10:55:30;;;;;;;33.38;14.15;;;15.20;99.90;;;;;;5061283;28;20592;-92
2021/09/04 10:58:06;;;;;;;26.77;14.80;;;15.20;99.90;;;;;;5066406;28;20105;-92
2021/09/04 11:00:45;;;;;;;27.15;14.23;;;15.20;99.90;;;;;;5063013;28;20471;-93
2021/09/04 11:03:15;;;;;;;24.50;12.93;;;15.30;99.90;;;;;;5069743;28;20481;-92
2021/09/04 11:05:44;;;;;;;26.42;14.15;;;15.30;99.90;;;;;;5073210;28;20075;-92
2021/09/04 11:08:12;;;;;;;27.17;14.25;;;15.30;99.90;;;;;;5067696;28;20058;-92
2021/09/04 11:10:41;;;;;;;25.95;13.43;;;15.40;99.90;;;;;;5063841;28;20465;-92
2021/09/04 11:13:40;;;;;;;25.65;14.85;;;15.40;99.90;;;;;;5052277;28;20079;-91
2021/09/04 11:16:25;;;;;;;27.88;13.40;;;15.50;99.90;;;;;;5065567;28;20061;-92
2021/09/04 11:18:54;;;;;;;24.13;13.60;;;15.50;99.90;;;;;;5059813;28;20125;-92
2021/09/04 11:21:20;;;;;;;26.20;13.95;;;15.50;99.90;;;;;;5062535;28;20334;-92
2021/09/04 11:23:46;;;;;;;26.05;13.68;;;15.60;99.90;;;;;;5062339;28;20032;-93
2021/09/04 11:26:12;;;;;;;25.85;13.73;;;15.60;99.90;;;;;;5062858;28;20094;-92
2021/09/04 11:28:38;;;;;;;25.17;14.02;;;15.70;99.90;;;;;;5062184;28;20049;-92
2021/09/04 11:31:04;;;;;;;24.92;14.57;;;15.70;99.90;;;;;;5060001;28;20028;-92
2021/09/04 11:33:31;;;;;;;24.15;13.23;;;15.80;99.90;;;;;;5059986;28;20028;-92
2021/09/04 11:35:57;;;;;;;24.95;13.07;;;15.80;99.90;;;;;;5062694;28;20561;-92
2021/09/04 11:38:29;;;;;;;27.60;12.68;;;15.80;99.90;;;;;;5057054;28;20024;-92
2021/09/04 11:40:54;;;;;;;24.23;12.55;;;16.00;99.90;;;;;;5054963;28;20478;-92
2021/09/04 11:43:26;;;;;;;22.30;11.48;;;16.00;99.90;;;;;;5058280;28;20025;-92
2021/09/04 11:46:03;;;;;;;22.95;10.75;;;16.10;99.90;;;;;;5058107;28;20478;-91
2021/09/04 11:48:29;;;;;;;22.83;11.85;;;16.10;99.90;;;;;;5058886;28;20108;-92
2021/09/04 11:51:06;;;;;;;21.23;11.35;;;16.10;99.90;;;;;;5062056;28;20051;-92
2021/09/04 11:53:32;;;;;;;23.33;11.88;;;16.10;99.90;;;;;;5066072;28;20012;-94
2021/09/04 11:55:57;;;;;;;23.52;11.45;;;16.20;99.90;;;;;;5067624;28;20566;-92
2021/09/04 11:58:26;;;;;;;18.90;11.38;;;16.30;99.90;;;;;;5076212;28;20061;-92
2021/09/04 12:00:52;;;;;;;19.55;11.82;;;16.30;99.90;;;;;;5085787;28;20028;-92
2021/09/04 12:03:27;;;;;;;20.23;10.95;;;16.30;99.90;;;;;;5080572;28;20112;-92
2021/09/04 12:05:54;;;;;;;19.63;11.85;;;16.30;99.90;;;;;;5077436;28;20024;-92
2021/09/04 12:08:26;;;;;;;24.55;10.95;;;16.40;99.90;;;;;;5071094;28;20032;-92
2021/09/04 12:10:58;;;;;;;20.50;10.82;;;16.40;99.90;;;;;;5069340;28;20037;-92
2021/09/04 12:13:25;;;;;;;19.83;9.70;;;16.50;99.90;;;;;;5061393;28;20036;-93
2021/09/04 12:16:03;;;;;;;19.20;9.70;;;16.50;99.90;;;;;;5069801;28;20033;-93
2021/09/04 12:18:32;;;;;;;20.85;10.35;;;16.60;99.90;;;;;;5064073;28;20441;-91
2021/09/04 12:21:17;;;;;;;18.70;10.30;;;16.70;99.90;;;;;;5064027;28;20039;-92
2021/09/04 12:23:48;;;;;;;19.25;10.10;;;16.80;99.90;;;;;;5069566;28;20024;-91
2021/09/04 12:26:14;;;;;;;18.98;10.52;;;16.80;99.90;;;;;;5063064;28;20147;-92
2021/09/04 12:28:39;;;;;;;17.70;9.95;;;16.80;99.90;;;;;;5061538;28;20142;-92
2021/09/04 12:31:16;;;;;;;19.50;10.60;;;16.80;99.90;;;;;;5069045;28;20032;-92